Date,TemperatureHighF,TemperatureAvgF,TemperatureLowF,DewpointHighF,DewpointAvgF,DewpointLowF,HumidityHigh,HumidityAvg,HumidityLow,PressureMaxIn,PressureMinIn,WindSpeedMaxMPH,WindSpeedAvgMPH,GustSpeedMaxMPH,PrecipitationSumIn
2013-1-2,43,42,42,32,31,31,66,65,65,30.27,30.26,12,5,18,0.00
2013-1-3,42,39,34,36,33,28,83,78,73,30.46,30.38,18,9,24,0.00
2013-1-4,50,48,45,45,40,37,86,76,67,30.50,30.28,9,3,14,0.04
2013-1-5,50,46,42,42,40,37,83,78,74,30.43,30.28,7,2,12,0.00
2013-1-6,44,43,42,39,38,36,87,82,75,30.41,30.25,6,1,14,0.01
2013-1-7,41,40,38,39,37,36,94,92,89,30.41,30.38,0,0,1,0.11
2013-1-8,42,40,35,38,36,33,95,88,84,30.38,30.24,6,1,11,0.01
2013-1-9,42,41,39,39,36,34,88,84,76,30.27,29.97,9,4,16,0.01
2013-1-10,39,37,36,35,33,31,87,84,82,29.97,29.90,9,3,14,0.09
2013-1-11,34,29,27,29,20,16,83,70,62,30.05,29.80,4,0,9,0.01
2013-1-12,25,24,19,19,17,14,79,76,72,30.08,30.06,2,0,4,0.00
2013-1-13,29,25,23,20,17,15,73,69,63,30.13,30.09,3,0,4,0.00
2013-1-14,26,24,19,22,19,13,83,79,73,30.09,29.96,2,0,4,0.00
2013-1-15,29,23,14,23,17,9,83,79,68,29.97,29.82,1,0,3,0.00
2013-1-16,27,26,24,22,20,19,82,79,74,29.84,29.79,3,0,5,0.00
2013-1-17,28,26,24,22,19,17,83,76,67,29.99,29.82,4,1,10,0.00
2013-1-18,25,22,20,20,17,14,83,79,67,29.97,29.91,4,0,7,0.00
2013-1-19,22,20,19,15,13,12,79,76,69,29.76,29.63,0,0,0,0.00
2013-1-20,25,24,23,20,18,16,83,77,72,29.61,29.55,2,0,5,0.00
2013-1-21,27,24,22,22,20,17,84,83,77,29.66,29.52,3,0,4,0.00
2013-1-22,26,21,19,17,14,13,82,75,65,29.82,29.66,0,0,2,0.00
2013-1-23,24,21,19,17,15,12,79,76,72,29.87,29.82,0,0,0,0.00
2013-1-24,27,22,19,20,17,12,86,80,73,30.06,29.85,0,0,0,0.00
2013-1-25,26,17,6,13,10,0,77,72,55,30.19,30.06,2,0,4,0.00
2013-1-26,15,12,0,7,4,-9,74,71,65,30.14,30.06,1,0,2,0.00
2013-1-27,15,15,15,7,7,7,71,71,71,30.07,30.07,0,0,0,0.00
2013-1-28,35,18,15,28,11,7,78,72,71,30.07,29.98,2,0,4,0.00
2013-1-29,40,39,39,37,37,36,92,90,88,29.98,29.93,10,7,14,0.04
2013-1-30,54,47,40,47,43,35,95,84,72,29.96,29.75,14,7,20,0.22
2013-1-31,47,43,38,37,33,29,90,68,52,30.04,29.85,17,8,28,0.09
2013-2-1,44,40,37,36,34,31,93,78,63,29.91,29.35,14,5,17,0.08
2013-2-2,40,36,29,36,30,20,95,78,64,29.83,29.28,7,2,14,0.04
2013-2-3,38,29,25,24,19,17,73,66,52,30.02,29.84,5,1,13,0.00
2013-2-4,42,37,32,36,31,26,87,80,74,29.88,29.78,14,8,21,0.00
2013-2-5,44,38,36,36,33,31,86,82,73,29.88,29.67,9,6,14,0.00
2013-2-6,41,34,29,27,22,17,83,62,43,29.61,29.55,11,2,14,0.00
2013-2-7,41,30,24,26,23,19,85,74,49,29.88,29.68,7,0,8,0.00
2013-2-8,37,28,21,24,20,16,86,72,46,29.99,29.88,6,1,8,0.00
2013-2-9,32,26,22,22,19,16,85,75,56,30.11,30.00,2,0,4,0.04
2013-2-10,38,25,17,26,16,11,81,69,42,30.11,29.96,2,0,4,0.00
2013-2-11,27,24,15,19,16,9,83,69,57,29.95,29.82,4,0,6,0.00
2013-2-12,28,26,26,21,19,18,77,72,71,29.87,29.81,4,1,8,0.00
2013-2-13,35,28,25,24,22,19,84,76,61,30.34,30.00,2,0,4,0.05
2013-2-14,30,27,25,24,22,19,82,80,76,30.34,30.15,0,0,0,0.01
2013-2-15,34,30,28,28,25,23,87,81,75,30.18,30.09,0,0,0,0.01
2013-2-16,37,32,28,29,27,23,89,81,68,30.30,30.22,3,0,4,0.01
2013-2-17,38,32,30,34,29,27,92,87,77,30.31,30.27,0,0,2,0.11
2013-2-18,34,30,30,30,28,27,92,90,82,30.28,30.22,0,0,0,0.00
2013-2-19,36,31,28,28,26,22,90,80,72,30.15,29.89,10,1,13,0.01
2013-2-20,34,28,25,23,20,17,83,71,56,30.19,30.04,6,1,10,0.00
2013-2-21,33,23,11,20,15,6,84,72,49,30.19,30.13,2,0,4,0.04
2013-2-22,26,21,17,19,15,10,84,76,62,30.13,29.93,4,0,7,0.00
2013-2-23,28,24,22,22,18,17,83,80,78,29.93,29.82,2,0,7,0.00
2013-2-24,39,31,21,32,27,18,91,84,71,30.02,29.83,7,0,9,0.24
2013-2-25,37,34,33,35,32,30,93,92,91,30.10,30.01,0,0,1,0.11
2013-2-26,42,35,32,38,32,28,98,88,77,30.44,30.32,3,1,6,0.00
2013-2-27,39,34,31,32,30,28,92,86,73,30.47,30.43,4,0,6,0.00
2013-2-28,39,34,32,32,29,27,91,82,69,30.46,30.27,2,0,4,0.00
2013-3-1,38,33,29,29,26,23,83,76,65,30.30,30.20,6,1,9,0.00
2013-3-2,49,33,22,26,22,18,85,65,35,30.32,30.19,5,1,7,0.00
2013-3-3,40,34,25,28,24,19,79,67,59,30.29,30.20,6,1,14,0.00
2013-3-4,28,25,22,23,20,18,85,81,78,30.32,30.27,2,0,3,0.00
2013-3-5,53,34,20,31,23,17,85,67,39,30.24,30.01,4,1,8,0.00
2013-3-6,54,36,23,35,28,19,90,73,44,29.94,29.74,2,0,3,0.00
2013-3-7,50,39,30,42,35,27,95,85,69,29.74,29.68,1,0,3,0.01
2013-3-8,45,40,38,43,39,37,97,95,88,29.75,29.71,1,0,2,0.01
2013-3-9,38,37,36,37,35,34,97,94,93,29.75,29.72,0,0,0,0.01
2013-3-10,56,44,36,44,38,34,98,83,47,29.67,29.54,11,1,14,0.00
2013-3-11,29,27,24,23,20,18,78,75,71,29.76,29.68,0,0,0,0.01
2013-3-12,27,25,23,20,19,18,83,78,70,29.75,29.60,3,0,6,0.00
2013-3-13,31,24,20,19,16,13,84,73,55,29.80,29.59,1,0,2,0.00
2013-3-14,35,20,8,15,10,0,77,65,34,29.89,29.80,4,0,7,0.08
2013-3-15,36,22,12,20,12,7,80,68,45,30.12,29.89,6,1,9,0.00
2013-3-16,33,16,9,16,7,2,77,70,43,30.17,30.12,4,0,8,0.00
2013-3-17,46,30,16,22,16,8,76,57,34,30.06,29.74,5,1,9,0.00
2013-3-18,39,32,28,29,24,18,90,74,61,29.74,29.34,3,0,6,0.00
2013-3-19,39,32,30,30,27,25,91,83,64,29.52,29.33,2,0,4,0.00
2013-3-20,54,40,33,37,32,28,95,73,45,29.85,29.66,9,3,15,0.06
2013-3-21,37,33,27,33,25,19,88,73,55,30.15,29.85,9,2,11,0.02
2013-3-22,35,28,26,21,18,15,72,64,50,30.18,30.13,4,1,9,0.00
2013-3-23,37,24,17,18,11,-1,73,58,27,30.25,30.16,6,1,9,0.00
2013-3-24,39,24,13,9,2,-4,58,40,23,30.25,30.11,7,1,11,0.00
2013-3-25,34,23,20,9,8,6,60,52,32,30.13,30.04,4,1,10,0.00
2013-3-26,32,26,20,10,7,3,60,46,29,29.99,29.91,7,2,11,0.00
2013-3-27,31,26,22,23,15,9,76,62,52,29.97,29.93,4,0,6,0.00
2013-3-28,39,30,24,27,23,20,84,74,56,29.96,29.82,1,0,3,0.05
2013-3-29,43,34,29,30,25,20,90,69,46,29.82,29.73,14,2,20,0.14
2013-3-30,44,34,29,28,24,22,80,67,53,29.82,29.75,3,0,8,0.00
2013-3-31,34,31,29,24,23,22,78,72,63,29.83,29.79,4,0,7,0.00
2013-4-1,40,31,26,26,20,17,81,65,48,29.95,29.85,4,0,11,0.01
2013-4-2,35,28,27,24,21,20,77,73,63,29.96,29.92,4,0,8,0.00
2013-4-3,35,31,29,23,22,21,76,69,59,30.05,30.01,7,0,10,0.00
2013-4-4,36,32,29,25,24,23,80,74,63,30.03,29.92,3,0,6,0.00
2013-4-5,32,31,31,28,26,25,84,82,78,29.92,29.82,2,0,4,0.00
2013-4-6,39,34,32,31,28,27,87,79,67,30.19,29.93,2,0,3,0.00
2013-4-7,48,35,26,29,25,18,86,67,36,30.22,30.11,5,0,7,0.01
2013-4-8,54,36,20,28,21,17,86,58,27,30.11,29.80,7,0,10,0.00
2013-4-9,52,41,32,38,31,20,91,67,51,29.81,29.74,6,1,9,0.02
2013-4-10,54,44,34,43,38,31,97,79,54,29.92,29.74,12,4,17,0.05
2013-4-11,47,43,38,42,37,34,89,82,76,29.92,29.81,6,1,8,0.02
2013-4-12,57,51,40,49,44,38,95,79,52,29.88,29.64,16,4,26,0.20
2013-4-13,61,49,37,41,38,32,95,67,34,30.32,29.89,12,4,19,0.02
2013-4-14,53,42,38,40,37,35,97,84,63,30.41,30.33,2,0,4,0.00
2013-4-15,77,57,36,48,41,36,99,61,27,30.39,30.22,5,1,11,0.00
2013-4-16,74,59,42,53,44,36,99,62,34,30.26,30.19,4,0,7,0.02
2013-4-17,52,50,48,51,49,48,99,99,98,30.29,30.25,0,0,0,0.00
2013-4-22,71,55,41,54,48,40,99,79,51,30.12,30.02,7,1,10,0.00
2013-4-23,69,57,44,50,44,38,99,67,37,30.31,30.12,14,2,25,0.00
2013-4-24,76,59,41,47,43,38,92,59,32,30.41,30.30,9,2,14,0.00
2013-4-25,81,64,50,53,48,45,88,60,31,30.37,30.20,4,0,8,0.00
2013-4-26,81,65,46,53,48,42,98,59,26,30.20,29.69,11,3,15,0.00
2013-4-27,63,54,46,54,50,45,97,86,61,29.83,29.70,6,1,10,0.00
2013-4-28,56,46,39,45,41,38,99,85,60,30.11,29.82,5,0,7,0.00
2013-4-29,50,44,38,47,43,38,99,98,89,30.10,30.06,1,0,5,0.01
2013-4-30,65,52,45,52,47,44,99,84,59,30.25,30.16,4,1,8,0.06
2013-5-1,56,50,44,51,47,44,99,92,80,30.32,30.20,2,0,5,0.02
2013-5-2,65,53,48,56,51,47,99,92,72,30.22,30.10,5,0,9,0.02
2013-5-3,58,52,44,51,49,43,99,90,74,30.11,30.05,6,1,8,0.02
2013-5-4,69,53,42,54,48,42,99,85,53,30.20,30.08,5,0,10,0.04
2013-5-5,74,58,48,53,50,46,99,78,42,30.32,30.20,4,0,8,0.00
2013-5-6,68,56,43,58,51,43,99,86,65,30.30,30.13,7,0,9,0.07
2013-5-7,74,60,51,63,57,51,99,91,60,30.12,30.03,4,0,7,0.19
2013-5-8,77,62,52,64,57,52,99,85,53,30.09,30.01,8,0,13,0.15
2013-5-9,79,62,50,67,59,50,99,89,48,30.08,29.99,4,0,8,0.13
2013-5-10,59,57,55,58,56,54,99,98,91,30.06,29.96,4,0,7,0.59
2013-5-12,67,53,44,50,45,38,97,76,48,30.12,29.95,9,2,14,0.01
2013-5-13,60,49,40,48,42,38,95,79,48,30.14,30.05,12,4,17,0.01
2013-5-14,68,56,44,50,46,41,98,73,41,30.06,29.91,9,3,15,0.00
2013-5-15,80,60,38,57,49,38,99,71,40,29.91,29.69,4,1,11,0.00
2013-5-19,80,69,54,58,55,53,99,65,44,29.87,29.73,10,2,13,0.35
2013-5-20,68,56,47,53,47,43,98,73,43,29.99,29.85,10,3,15,0.00
2013-5-21,62,50,42,48,44,41,99,82,59,30.01,29.97,7,1,9,0.00
2013-5-22,62,51,45,50,46,40,98,85,61,29.93,29.76,11,3,18,0.18
2013-5-23,55,48,42,42,39,36,96,73,49,29.93,29.80,3,0,4,0.01
2013-5-24,53,45,36,46,41,35,99,84,66,29.94,29.81,4,0,10,0.00
2013-5-25,59,46,37,49,43,36,99,88,55,29.94,29.87,6,0,11,0.15
2013-5-26,46,44,42,44,42,40,99,94,84,29.87,29.73,12,5,24,0.30
2013-5-27,51,46,43,48,46,43,99,97,86,29.80,29.70,8,4,12,0.17
2013-5-28,69,56,42,51,47,42,99,75,47,29.90,29.65,6,0,17,0.00
2013-5-29,69,55,47,56,52,46,99,89,62,29.76,29.61,3,0,8,0.13
2013-5-30,52,49,46,51,48,45,99,97,90,29.80,29.56,4,0,8,1.10
2013-5-31,65,54,43,56,51,43,99,92,58,29.78,29.52,2,0,5,0.14
2013-6-1,58,50,43,58,49,42,99,98,92,29.84,29.78,6,1,12,0.70
2013-6-2,54,53,49,53,50,46,97,91,87,30.08,29.83,7,1,13,0.26
2013-6-3,51,48,45,48,46,44,98,93,87,30.21,30.15,7,2,11,0.58
2013-6-4,59,51,48,52,48,47,99,92,76,30.20,30.16,4,1,8,0.17
2013-6-5,72,58,39,53,46,39,99,68,37,30.23,30.17,4,1,7,0.01
2013-6-6,74,60,48,58,53,47,99,82,54,30.26,30.20,4,1,6,0.00
2013-6-7,79,62,48,64,55,48,99,80,50,30.25,30.20,4,1,8,0.00
2013-6-8,80,66,50,65,59,50,99,79,49,30.20,30.02,4,1,8,0.00
2013-6-9,82,64,53,65,59,52,99,85,49,30.01,29.84,4,1,9,0.31
2013-6-10,65,58,52,61,56,51,99,92,79,29.99,29.83,3,1,6,0.02
2013-6-11,69,54,47,59,50,47,99,91,56,30.08,29.99,2,0,6,0.00
2013-6-12,80,66,48,58,51,47,99,65,33,30.24,30.17,5,1,8,0.00
2013-6-13,83,69,51,60,55,50,99,67,39,30.23,30.02,9,2,13,0.00
2013-6-14,66,60,55,58,55,50,98,84,56,30.24,30.02,5,1,12,0.04
2013-6-15,77,63,46,59,53,45,99,73,47,30.17,30.04,9,2,12,0.00
2013-6-16,84,68,56,57,53,48,95,63,31,30.16,30.08,8,2,15,0.00
2013-6-17,56,53,51,54,52,51,99,97,91,30.15,30.12,0,0,2,0.00
2013-6-18,83,82,81,76,75,75,81,80,78,30.12,30.11,0,0,0,0.00
2013-6-19,96,80,64,76,70,63,99,73,50,30.17,30.03,5,1,8,0.00
2013-6-20,97,78,64,77,70,61,99,77,52,30.09,29.90,11,1,16,0.17
2013-6-21,65,64,64,63,63,62,97,96,95,30.04,29.97,5,4,8,0.00
2013-6-25,56,53,50,54,51,48,98,95,91,30.26,30.15,4,2,8,0.98
2013-6-26,51,50,49,49,48,48,99,95,91,30.31,30.24,4,2,10,0.13
2013-6-28,69,54,42,55,48,42,99,82,47,30.28,30.17,7,0,8,0.00
2013-6-29,67,58,48,55,50,47,99,77,54,30.20,30.09,11,3,16,0.01
2013-6-30,68,57,49,50,45,40,91,66,42,30.29,30.21,9,2,11,0.01
2013-7-1,78,64,49,55,50,46,94,64,38,30.23,30.12,8,2,14,0.00
2013-7-2,84,68,50,61,54,48,99,67,31,30.14,30.05,10,2,13,0.00
2013-7-3,84,67,52,66,59,52,99,79,45,30.08,29.99,6,1,10,0.06
2013-7-4,82,68,55,64,60,54,99,79,49,30.33,30.08,3,1,6,0.01
2013-7-5,75,62,60,64,61,60,99,97,59,30.42,30.33,2,0,5,0.09
2013-7-6,82,70,57,66,60,56,99,72,45,30.49,30.43,4,1,8,0.00
2013-7-7,83,77,66,64,57,51,85,52,37,30.50,30.46,4,2,8,0.00
2013-7-8,79,77,76,59,57,56,55,50,47,30.50,30.50,5,2,8,0.00
2013-7-9,86,71,53,64,58,52,99,69,37,30.44,30.23,4,1,7,0.00
2013-7-10,83,68,55,63,57,54,99,72,41,30.22,30.06,6,2,8,0.00
2013-7-11,66,59,50,55,51,50,99,78,61,30.18,30.12,6,1,9,0.00
2013-7-12,70,59,54,54,51,49,91,77,47,30.23,30.17,6,2,10,0.00
2013-7-13,78,63,46,57,52,45,99,71,39,30.24,30.20,5,1,8,0.00
2013-7-14,81,66,49,59,54,49,99,71,41,30.25,30.20,6,1,10,0.00
2013-7-15,74,65,52,59,52,48,97,66,41,30.31,30.22,7,2,11,0.00
2013-7-16,86,68,48,61,53,48,99,65,33,30.34,30.27,5,1,7,0.00
2013-7-17,82,57,50,61,54,50,99,90,43,30.32,30.29,2,0,3,0.00
2013-7-22,94,70,51,64,55,51,99,68,27,30.25,30.09,4,1,8,0.00
2013-7-23,94,73,53,63,55,48,99,63,23,30.11,30.05,3,1,6,0.00
2013-7-28,103,91,72,67,63,53,82,44,19,30.02,29.94,6,1,13,0.00
2013-7-29,88,73,63,72,66,62,99,81,44,30.09,29.92,7,2,11,0.65
2013-7-30,75,64,60,63,61,60,99,89,61,30.19,30.05,7,3,12,0.12
2013-7-31,79,69,61,64,60,57,95,74,53,30.24,30.16,11,3,14,0.00
2013-8-1,95,73,54,67,60,54,99,68,33,30.25,30.14,3,0,5,0.00
2013-8-2,100,78,55,68,62,55,99,64,24,30.17,30.07,4,1,6,0.00
2013-8-3,104,81,59,70,64,57,99,64,21,30.20,30.08,5,1,7,0.05
2013-8-4,93,70,59,71,65,59,99,88,43,30.30,30.18,13,1,19,2.26
2013-8-5,70,60,56,68,60,55,99,98,93,30.29,30.24,2,0,5,0.01
2013-8-6,97,74,59,72,65,58,99,78,36,30.16,30.02,11,1,17,0.38
2013-8-7,90,73,61,71,66,60,99,81,52,30.11,29.96,9,1,15,0.01
2013-8-8,93,75,64,71,66,63,99,76,43,30.17,29.95,5,1,6,0.00
2013-8-9,71,62,56,63,59,56,99,92,68,30.24,30.17,4,1,7,0.47
2013-8-10,72,58,51,64,55,51,99,91,63,30.24,30.21,5,1,7,0.01
2013-8-11,78,64,50,60,54,49,99,73,45,30.19,30.14,8,1,12,0.01
2013-8-12,78,57,46,57,50,46,99,82,41,30.19,30.13,4,1,6,0.00
2013-8-19,79,64,60,65,60,56,99,89,57,30.20,30.08,4,0,6,0.45
2013-8-20,69,58,50,59,55,50,99,89,60,30.46,30.20,5,1,9,0.08
2013-8-21,77,59,46,59,51,45,99,79,40,30.46,30.33,3,0,4,0.01
2013-8-22,79,61,46,59,52,46,99,77,40,30.33,30.22,5,1,8,0.00
2013-8-23,77,61,46,59,53,45,99,79,45,30.23,30.17,3,0,8,0.00
2013-8-24,81,64,48,61,54,48,99,75,40,30.19,30.01,6,1,9,0.00
2013-8-25,61,56,51,57,54,51,99,95,82,30.03,29.97,2,0,5,0.28
2013-8-26,59,56,55,58,55,54,99,98,97,30.07,30.01,2,1,3,0.14
2013-8-27,66,58,52,57,54,51,99,87,66,30.11,30.06,3,0,4,0.00
2013-8-28,75,60,52,58,55,51,99,86,53,30.21,30.05,5,1,8,0.01
2013-8-29,72,52,48,62,51,48,99,96,61,30.28,30.21,2,0,3,0.00
2013-8-30,80,66,47,62,54,47,99,69,39,30.25,30.18,6,1,8,0.00
2013-8-31,79,66,56,61,55,51,99,71,39,30.21,30.15,6,1,8,0.07
2013-9-1,62,56,51,59,52,46,99,87,60,30.35,30.20,3,1,7,0.02
2013-9-2,64,57,49,56,50,45,89,78,60,30.32,30.22,8,3,14,0.01
2013-9-3,68,63,60,61,58,56,96,84,73,30.41,30.23,8,2,13,0.00
2013-9-4,79,65,53,64,59,52,99,84,53,30.41,30.29,3,0,4,0.00
2013-9-5,83,66,51,64,58,51,99,78,45,30.29,30.13,4,1,6,0.00
2013-9-6,83,63,47,63,54,47,99,78,37,30.13,30.04,7,1,10,0.00
2013-9-7,85,63,46,61,54,45,99,78,42,30.21,30.11,4,0,7,0.00
2013-9-8,82,63,48,61,55,47,99,80,46,30.22,30.10,4,0,7,0.00
2013-9-9,64,59,56,60,58,54,99,95,72,30.12,29.97,9,2,16,0.96
2013-9-10,64,53,43,57,50,43,99,92,56,30.17,30.01,14,2,20,0.04
2013-9-11,60,52,46,51,48,45,99,88,66,30.08,29.99,14,3,18,0.01
2013-9-12,63,53,47,53,50,46,99,89,63,30.10,29.96,8,2,10,0.00
2013-9-13,58,51,50,52,50,49,99,97,79,30.17,30.10,4,1,6,0.00
2013-9-14,74,61,52,57,53,49,96,77,44,30.15,30.01,9,3,15,0.00
2013-9-15,66,59,56,64,58,56,99,96,83,30.02,29.85,4,1,7,0.35
2013-9-16,56,55,53,55,54,52,99,97,88,29.85,29.78,6,1,11,0.01
2013-9-17,60,49,44,52,44,39,99,83,46,29.79,29.63,9,3,18,0.17
2013-9-18,57,49,42,55,48,42,99,97,89,29.76,29.54,6,1,9,0.17
2013-9-19,61,50,39,50,45,39,99,84,53,30.04,29.72,6,2,14,0.04
2013-9-20,62,52,48,55,50,45,99,92,69,30.16,30.00,8,2,11,0.15
2013-9-21,58,54,52,52,51,50,98,92,82,30.33,30.17,4,2,7,0.00
2013-9-22,62,54,45,52,49,44,99,86,60,30.43,30.33,5,1,8,0.00
2013-9-23,69,60,54,55,53,48,96,77,56,30.33,30.18,7,3,12,0.00
2013-9-24,59,57,56,53,52,51,88,82,76,30.18,30.11,5,2,8,0.00
2013-9-27,51,51,51,50,50,50,96,96,96,30.20,30.20,1,1,2,0.00
2013-9-28,64,45,32,49,38,32,99,82,43,30.14,30.06,4,0,7,0.00
2013-9-29,64,48,36,47,40,35,99,78,42,30.10,30.02,8,1,11,0.01
2013-9-30,64,47,36,43,38,35,99,75,38,30.04,29.97,3,1,8,0.00
2013-10-1,39,32,29,36,31,29,99,97,90,30.04,30.01,1,0,2,0.00
2013-10-2,61,43,29,46,33,28,99,75,31,30.34,30.18,4,1,8,0.00
2013-10-3,59,47,29,44,33,29,99,62,35,30.46,30.39,5,1,10,0.00
2013-10-4,48,29,25,39,28,25,99,94,59,30.43,30.39,1,0,5,0.00
2013-10-5,59,43,30,43,36,29,98,78,43,30.29,30.15,4,0,7,0.00
2013-10-6,68,51,41,48,44,40,99,79,42,30.40,30.20,2,0,4,0.00
2013-10-7,60,52,41,51,47,41,99,86,62,30.44,30.39,3,0,4,0.00
2013-10-8,65,48,37,51,45,36,99,89,58,30.41,30.30,4,1,7,0.00
2013-10-9,58,50,40,52,46,40,99,89,65,30.30,30.00,7,2,9,0.00
2013-10-10,60,51,44,51,48,43,99,88,66,29.99,29.77,8,3,13,0.69
2013-10-11,45,43,42,44,43,42,99,98,97,29.99,29.91,3,0,4,0.06
2013-10-12,50,46,37,49,45,37,99,98,97,30.16,30.08,2,0,4,0.05
2013-10-13,62,45,37,45,41,36,99,87,51,30.26,30.15,8,1,11,0.01
2013-10-14,50,40,32,47,40,31,99,97,85,30.26,30.15,2,0,4,0.01
2013-10-15,55,46,38,50,44,38,99,93,73,30.15,29.84,8,1,11,0.01
2013-10-16,58,46,39,46,43,39,99,88,58,30.09,29.83,4,1,7,0.01
2013-10-17,51,42,39,47,42,39,99,97,84,30.08,30.00,8,3,16,0.07
2013-10-18,54,49,38,47,42,38,99,76,63,30.25,29.98,5,2,13,0.02
2013-10-19,51,42,32,45,40,32,99,95,79,30.25,30.11,4,1,7,0.00
2013-10-20,60,47,37,52,46,37,99,96,74,30.15,30.11,3,1,6,0.08
2013-10-21,69,58,49,56,53,48,99,85,61,30.16,30.11,7,3,13,0.01
2013-10-22,64,52,46,58,50,45,99,95,70,30.16,30.03,3,0,6,0.00
2013-10-23,58,53,46,57,52,45,99,95,87,30.07,29.97,6,1,8,0.01
2013-10-24,64,56,53,54,52,51,94,88,64,30.21,30.07,7,4,13,0.01
2013-10-25,53,48,42,51,48,41,99,97,92,30.23,30.15,2,0,3,0.00
2013-10-26,71,58,48,57,52,48,99,84,59,30.15,30.09,8,2,13,0.00
2013-10-27,68,59,52,53,50,44,97,73,54,30.09,29.86,16,6,24,0.02
2013-10-28,68,56,53,48,47,44,78,71,48,29.97,29.78,13,5,19,0.00
2013-10-29,60,52,43,49,46,42,98,79,58,30.17,29.90,15,5,21,0.00
2013-10-30,58,46,34,46,38,31,99,78,39,30.43,30.17,8,2,14,0.00
2013-10-31,56,39,28,42,35,27,99,87,58,30.45,30.27,3,0,7,0.00
2013-11-1,50,42,32,42,39,32,99,90,72,30.26,30.06,10,2,16,0.00
2013-11-2,55,48,38,53,47,38,99,95,86,30.05,29.76,15,4,23,0.06
2013-11-3,54,52,49,52,49,48,98,91,81,29.81,29.69,8,4,14,0.08
2013-11-4,59,49,41,42,37,32,85,66,37,29.83,29.40,11,6,20,0.00
2013-11-5,51,43,34,43,37,31,94,79,65,29.65,29.40,10,3,13,0.02
2013-11-6,52,44,37,45,38,32,97,81,57,29.82,29.48,13,4,18,0.12
2013-11-7,62,55,46,51,49,45,99,81,64,29.96,29.79,18,6,24,0.02
2013-11-8,59,54,48,52,49,47,99,83,70,29.96,29.85,11,3,14,0.01
2013-11-9,56,48,36,52,42,32,99,79,51,29.99,29.85,9,3,14,0.11
2013-11-10,48,42,34,40,38,31,99,85,73,29.91,29.71,10,4,14,0.00
2013-11-11,46,40,36,38,35,32,92,82,68,30.55,30.11,4,1,7,0.01
2013-11-12,42,32,30,37,30,28,95,91,80,30.53,30.44,1,0,2,0.00
2013-12-2,51,37,26,41,30,23,97,79,48,30.64,30.43,2,0,4,0.00
2013-12-3,29,26,21,28,24,19,95,92,89,30.63,30.41,2,0,3,0.00
2013-12-4,36,29,23,30,25,21,95,86,76,30.41,30.24,12,3,17,0.00
2013-12-5,41,37,33,35,29,25,87,74,62,30.35,29.73,25,8,33,0.11
2013-12-6,38,33,30,34,22,18,94,65,50,30.03,29.75,13,4,24,0.00
2013-12-7,38,33,31,30,24,19,83,67,51,30.27,30.04,12,5,21,0.00
2013-12-8,41,39,35,36,34,31,89,82,78,30.33,30.25,9,5,14,0.02
2013-12-15,42,38,35,33,31,28,85,76,68,30.53,30.47,13,6,17,0.00
2013-12-16,46,33,24,33,27,22,94,81,61,30.53,30.49,4,1,7,0.00
2013-12-17,29,27,23,28,25,21,96,93,92,30.50,30.43,2,0,4,0.00
2013-12-18,28,28,26,26,25,24,94,91,88,30.43,30.19,2,0,4,0.00
2013-12-19,30,28,26,27,25,22,90,88,81,30.19,30.03,3,0,4,0.00
2013-12-20,35,31,29,33,29,27,95,92,87,30.52,30.14,5,1,8,0.02
2013-12-21,38,34,29,32,29,26,92,85,73,30.54,30.49,11,4,14,0.01
2013-12-26,49,39,34,43,38,33,99,94,75,29.68,29.41,4,0,7,0.01
2013-12-27,46,40,28,40,34,26,97,81,61,29.90,29.68,14,3,22,0.00
2013-12-28,34,30,26,33,28,24,98,95,91,29.87,29.82,2,0,3,0.00
2013-12-29,47,37,30,36,32,28,98,82,62,30.33,29.85,12,3,16,0.01
2013-12-30,45,32,23,32,27,21,93,82,56,30.45,30.34,8,1,12,0.00
2013-12-31,29,26,20,28,24,17,98,92,89,30.37,30.14,1,0,2,0.00
2014-1-1,33,30,23,32,27,21,99,91,80,30.13,30.00,7,1,8,0.00
2014-1-2,32,27,22,31,26,20,97,94,90,29.99,29.89,1,0,2,0.00